Time;durP1;ratioP1;P1;durP2;ratioP2;P2;SDS_P1;SDS_P2;PMS_P1;PMS_P2;Temp;Humidity;BMP_temperature;BMP_pressure;BME280_temperature;BME280_humidity;BME280_pressure;Samples;Min_cycle;Max_cycle;Signal;HPM_P1;HPM_P2
2022/01/26 00:00:07;;;;;;;0.00;0.00;;;;;;;-3.47;49.97;99819.91;5110633;28;20063;-80
2022/01/26 00:08:02;;;;;;;0.00;0.00;;;;;;;-3.55;49.84;99817.34;5096103;28;20022;-76
2022/01/26 00:10:27;;;;;;;0.00;0.00;;;;;;;-3.62;49.81;99822.38;5118749;27;20477;-77
2022/01/26 00:12:53;;;;;;;0.00;0.00;;;;;;;-3.50;49.76;99828.09;5133030;27;20470;-76
2022/01/26 00:15:19;;;;;;;0.93;0.93;;;;;;;-3.56;49.75;99818.31;5119020;27;20019;-76
2022/01/26 00:17:45;;;;;;;0.00;0.00;;;;;;;-3.46;50.42;99826.78;5112430;28;20076;-78
2022/01/26 00:20:23;;;;;;;1.83;1.73;;;;;;;-3.48;49.71;99825.31;5112607;28;20054;-80
2022/01/26 00:28:09;;;;;;;0.00;0.00;;;;;;;-3.53;49.65;99812.72;5120587;27;20466;-75
2022/01/26 00:38:52;;;;;;;0.00;0.00;;;;;;;-3.47;49.27;99825.16;5113552;28;19914;-75
2022/01/26 00:41:31;;;;;;;0.00;0.00;;;;;;;-3.54;49.68;99806.69;5113581;28;20020;-77
2022/01/26 00:43:58;;;;;;;0.00;0.00;;;;;;;-3.55;49.70;99805.06;5113336;28;20023;-78
2022/01/26 00:46:24;;;;;;;0.00;0.00;;;;;;;-3.62;49.76;99798.84;5112078;28;20457;-76
2022/01/26 00:48:51;;;;;;;0.00;0.00;;;;;;;-3.54;49.98;99801.47;5112834;28;20034;-75
2022/01/26 00:51:19;;;;;;;0.00;0.00;;;;;;;-3.59;50.14;99792.47;5113368;28;20046;-77
2022/01/26 00:53:51;;;;;;;0.00;0.00;;;;;;;-3.60;50.40;99802.13;5111283;28;20040;-76
2022/01/26 00:56:16;;;;;;;0.00;0.00;;;;;;;-3.58;49.97;99792.31;5111834;28;20031;-75
2022/01/26 00:58:42;;;;;;;0.93;0.93;;;;;;;-3.56;50.27;99795.59;5111701;28;20031;-75
2022/01/26 01:01:08;;;;;;;0.00;0.00;;;;;;;-3.79;50.50;99743.16;5111729;28;20024;-80
2022/01/26 01:03:38;;;;;;;0.00;0.00;;;;;;;-3.59;50.47;99771.56;5100319;28;20119;-77
2022/01/26 01:08:32;;;;;;;;;;;;;;;-3.49;50.35;99781.84;5093034;28;20063;-79
2022/01/26 01:10:58;;;;;;;0.20;0.20;;;;;;;-3.59;49.98;99775.00;5090978;28;19908;-77
2022/01/26 01:13:35;;;;;;;0.00;0.00;;;;;;;-3.53;50.19;99778.75;5091225;28;20036;-78
2022/01/26 01:16:02;;;;;;;0.00;0.00;;;;;;;-3.56;50.60;99774.66;5096978;28;20065;-78
2022/01/26 01:18:49;;;;;;;0.00;0.00;;;;;;;-3.48;50.52;99780.88;5108034;28;20501;-79
2022/01/26 01:22:00;;;;;;;0.00;0.00;;;;;;;-3.54;50.52;99766.66;5111451;28;20034;-79
2022/01/26 01:29:21;;;;;;;0.00;0.00;;;;;;;-3.59;50.58;99761.94;5112576;28;20118;-77
2022/01/26 01:32:02;;;;;;;0.00;0.00;;;;;;;-3.61;50.84;99756.06;5111103;28;20031;-77
2022/01/26 01:34:39;;;;;;;0.00;0.00;;;;;;;-3.59;50.96;99761.09;5111198;28;20035;-78
2022/01/26 01:37:09;;;;;;;0.00;0.00;;;;;;;-3.67;50.87;99756.72;5111107;28;20034;-78
2022/01/26 01:39:36;;;;;;;0.00;0.00;;;;;;;-3.70;51.45;99755.25;5111029;28;20444;-76
2022/01/26 01:42:04;;;;;;;0.03;0.03;;;;;;;-3.69;51.42;99756.06;5111521;28;20099;-77
2022/01/26 01:44:30;;;;;;;0.00;0.00;;;;;;;-3.71;51.35;99752.78;5111022;28;20607;-78
2022/01/26 01:46:57;;;;;;;0.00;0.00;;;;;;;-3.79;51.48;99744.97;5110644;28;20144;-77
2022/01/26 01:49:24;;;;;;;0.00;0.00;;;;;;;-3.73;51.29;99752.16;5110902;28;20042;-76
2022/01/26 01:51:54;;;;;;;0.00;0.00;;;;;;;-3.79;51.20;99742.34;5111937;28;20550;-78
2022/01/26 01:54:20;;;;;;;0.00;0.00;;;;;;;-3.89;51.51;99724.25;5110564;28;20160;-75
2022/01/26 01:56:55;;;;;;;0.20;0.20;;;;;;;-3.87;51.35;99730.09;5111835;28;20203;-76
2022/01/26 01:59:25;;;;;;;0.00;0.00;;;;;;;-3.89;51.55;99752.97;5112259;28;20538;-76
2022/01/26 02:01:51;;;;;;;0.00;0.00;;;;;;;-3.87;51.61;99746.59;5110425;28;20074;-76
2022/01/26 02:04:16;;;;;;;0.00;0.00;;;;;;;-3.88;52.04;99752.00;5094932;28;20039;-78
2022/01/26 02:06:43;;;;;;;0.00;0.00;;;;;;;-3.97;52.20;99743.31;5090111;28;20028;-82
2022/01/26 02:09:09;;;;;;;0.00;0.00;;;;;;;-4.03;52.93;99739.59;5090397;28;20463;-79
2022/01/26 02:11:35;;;;;;;0.10;0.10;;;;;;;-4.06;53.94;99733.88;5091395;28;20038;-80
2022/01/26 02:14:06;;;;;;;0.00;0.00;;;;;;;-4.02;53.52;99746.44;5090562;28;20028;-80
2022/01/26 02:49:51;;;;;;;13.70;2.43;;;;;;;-4.18;51.51;99728.16;5099720;28;20044;-78
2022/01/26 02:55:34;;;;;;;0.00;0.00;;;;;;;-4.26;51.19;99704.63;5100952;28;20051;-77
2022/01/26 02:58:34;;;;;;;0.00;0.00;;;;;;;-4.15;51.46;99727.84;5114004;28;20035;-77
2022/01/26 03:06:06;;;;;;;0.00;0.00;;;;;;;-4.00;51.24;99711.47;5115128;28;20096;-74
2022/01/26 03:08:38;;;;;;;0.00;0.00;;;;;;;-3.93;50.87;99712.47;5115354;28;20023;-76
2022/01/26 03:11:12;;;;;;;0.00;0.00;;;;;;;-3.90;51.18;99719.97;5113915;28;20027;-75
2022/01/26 03:13:43;;;;;;;0.00;0.00;;;;;;;-3.86;50.66;99716.88;5113809;28;20448;-77
2022/01/26 03:16:14;;;;;;;0.00;0.00;;;;;;;-3.86;50.16;99710.81;5113860;28;20028;-76
2022/01/26 03:21:08;;;;;;;0.00;0.00;;;;;;;-3.89;49.53;99713.78;5115119;28;20023;-77
2022/01/26 03:32:12;;;;;;;0.00;0.00;;;;;;;-3.94;49.43;99689.91;5114929;28;20023;-77
2022/01/26 03:34:22;;;;;;;0.00;0.00;;;;;;;-3.93;49.16;99687.16;5114228;28;20055;-77
2022/01/26 03:39:18;;;;;;;0.00;0.00;;;;;;;-3.83;48.84;99701.84;5114752;28;20115;-77
2022/01/26 03:41:56;;;;;;;0.00;0.00;;;;;;;-3.88;49.22;99691.91;5113218;28;20039;-77
2022/01/26 03:44:21;;;;;;;0.00;0.00;;;;;;;-3.84;48.66;99693.19;5113355;28;20024;-75
2022/01/26 03:46:49;;;;;;;0.00;0.00;;;;;;;-3.86;49.24;99687.31;5112989;28;20026;-76
2022/01/26 03:49:14;;;;;;;0.00;0.00;;;;;;;-3.87;49.08;99693.50;5113202;28;20027;-76
2022/01/26 03:51:41;;;;;;;0.13;0.13;;;;;;;-3.85;48.87;99694.16;5113011;28;20512;-77
2022/01/26 03:54:07;;;;;;;0.40;0.40;;;;;;;-3.81;48.96;99697.25;5113021;28;20048;-79
2022/01/26 03:56:34;;;;;;;0.10;0.10;;;;;;;-3.82;48.26;99693.84;5114244;28;20059;-76
2022/01/26 03:59:00;;;;;;;0.00;0.00;;;;;;;-3.75;48.35;99693.97;5095715;28;20043;-77
2022/01/26 04:01:25;;;;;;;0.50;0.50;;;;;;;-3.79;48.46;99683.03;5093945;28;20031;-77
2022/01/26 04:03:51;;;;;;;0.00;0.00;;;;;;;-3.72;48.47;99699.69;5120683;27;20413;-79
2022/01/26 04:06:17;;;;;;;0.00;0.00;;;;;;;-3.97;47.76;99662.31;5133049;27;20466;-75
2022/01/26 04:08:44;;;;;;;0.00;0.00;;;;;;;-3.80;48.11;99676.19;5133180;27;20027;-76
2022/01/26 04:13:54;;;;;;;0.00;0.00;;;;;;;-3.63;47.74;99694.47;5134464;27;20027;-75
2022/01/26 04:16:21;;;;;;;0.00;0.00;;;;;;;-3.61;48.11;99701.16;5133241;27;20562;-78
2022/01/26 04:18:47;;;;;;;0.00;0.00;;;;;;;-3.56;47.95;99693.59;5134309;27;20038;-77
2022/01/26 04:21:43;;;;;;;0.00;0.00;;;;;;;-3.55;47.50;99694.44;5133190;27;20437;-77
2022/01/26 04:29:14;;;;;;;0.00;0.00;;;;;;;-3.47;47.51;99702.25;5134409;27;20110;-79
2022/01/26 04:31:39;;;;;;;0.00;0.00;;;;;;;-3.44;48.01;99693.25;5132732;27;20535;-76
2022/01/26 04:34:05;;;;;;;0.00;0.00;;;;;;;-3.43;48.80;99700.09;5132925;27;20019;-78
2022/01/26 04:36:37;;;;;;;0.00;0.00;;;;;;;-3.52;48.42;99688.06;5132827;27;20110;-76
2022/01/26 04:39:08;;;;;;;0.00;0.00;;;;;;;-3.44;48.65;99696.69;5134058;27;20055;-75
2022/01/26 04:41:41;;;;;;;0.00;0.00;;;;;;;-3.48;49.00;99697.19;5132483;27;20039;-76
2022/01/26 04:44:13;;;;;;;0.00;0.00;;;;;;;-3.48;48.46;99689.34;5132767;27;20570;-78
2022/01/26 04:46:39;;;;;;;0.00;0.00;;;;;;;-3.45;47.97;99687.22;5123375;27;20028;-78
2022/01/26 04:49:04;;;;;;;0.00;0.00;;;;;;;-3.45;47.22;99696.88;5112136;28;20027;-80
2022/01/26 04:51:30;;;;;;;0.00;0.00;;;;;;;-3.48;47.44;99690.16;5112133;28;20023;-75
2022/01/26 04:53:56;;;;;;;0.00;0.00;;;;;;;-3.51;46.58;99695.72;5106549;28;20164;-77
2022/01/26 04:56:21;;;;;;;0.00;0.00;;;;;;;-3.54;47.23;99690.81;5111622;28;20039;-76
2022/01/26 04:58:47;;;;;;;0.00;0.00;;;;;;;-3.57;47.01;99689.34;5111566;28;20031;-77
2022/01/26 05:01:12;;;;;;;0.00;0.00;;;;;;;-3.56;46.94;99693.59;5111809;28;20525;-74
2022/01/26 05:03:38;;;;;;;0.00;0.00;;;;;;;-3.54;47.07;99694.25;5111724;28;20119;-80
2022/01/26 05:06:03;;;;;;;0.00;0.00;;;;;;;-3.59;47.17;99678.28;5111463;28;20059;-78
2022/01/26 05:08:29;;;;;;;0.00;0.00;;;;;;;-3.53;47.48;99692.47;5109189;28;20039;-75
2022/01/26 05:10:54;;;;;;;0.00;0.00;;;;;;;-3.54;47.61;99696.88;5108197;28;20110;-79
2022/01/26 05:13:19;;;;;;;0.00;0.00;;;;;;;-3.60;47.85;99687.09;5105200;28;20402;-78
2022/01/26 05:15:45;;;;;;;0.00;0.00;;;;;;;-3.60;47.91;99676.63;5092248;28;20024;-82
2022/01/26 05:18:12;;;;;;;0.00;0.00;;;;;;;-3.65;47.70;99665.88;5091590;28;20104;-75
2022/01/26 05:20:37;;;;;;;0.00;0.00;;;;;;;-3.54;47.32;99685.59;5100254;28;20035;-86
2022/01/26 05:23:03;;;;;;;0.00;0.00;;;;;;;-3.45;46.92;99699.47;5106916;28;20036;-76
2022/01/26 05:25:29;;;;;;;0.00;0.00;;;;;;;-3.43;47.69;99694.88;5101871;28;20036;-76
2022/01/26 05:27:54;;;;;;;0.00;0.00;;;;;;;-3.41;47.14;99695.53;5110776;28;20032;-74
2022/01/26 05:30:20;;;;;;;0.00;0.00;;;;;;;-3.45;47.84;99686.41;5111857;28;20498;-74
2022/01/26 05:32:46;;;;;;;0.00;0.00;;;;;;;-3.39;47.89;99696.19;5107934;28;20185;-70
2022/01/26 05:35:12;;;;;;;0.00;0.00;;;;;;;-3.35;48.01;99692.25;5099111;28;20027;-72
2022/01/26 05:37:39;;;;;;;0.00;0.00;;;;;;;-3.42;47.92;99692.13;5097693;28;20419;-72
2022/01/26 05:40:06;;;;;;;0.00;0.00;;;;;;;-3.32;47.76;99699.75;5092024;28;20039;-72
2022/01/26 05:42:33;;;;;;;0.00;0.00;;;;;;;-3.34;47.33;99686.03;5091555;28;20031;-72
2022/01/26 05:45:03;;;;;;;0.00;0.00;;;;;;;-3.29;47.89;99703.84;5091211;28;20020;-72
2022/01/26 05:47:31;;;;;;;0.00;0.00;;;;;;;-3.18;47.09;99702.66;5091260;28;20042;-72
2022/01/26 05:49:56;;;;;;;0.00;0.00;;;;;;;-3.17;47.14;99699.03;5090759;28;20039;-72
2022/01/26 05:52:22;;;;;;;0.00;0.00;;;;;;;-3.22;46.68;99687.28;5089937;28;20032;-73
2022/01/26 05:54:47;;;;;;;0.00;0.00;;;;;;;-3.07;46.68;99694.41;5091021;28;20107;-73
2022/01/26 05:57:13;;;;;;;0.00;0.00;;;;;;;-3.04;46.63;99685.41;5089912;28;20032;-72
2022/01/26 05:59:38;;;;;;;0.00;0.00;;;;;;;-2.95;46.58;99687.00;5090265;28;20118;-72
2022/01/26 06:02:04;;;;;;;0.00;0.00;;;;;;;-2.86;46.10;99699.03;5091079;28;20028;-72
2022/01/26 06:04:31;;;;;;;0.00;0.00;;;;;;;-2.84;45.49;99696.28;5091441;28;20085;-73
2022/01/26 06:06:57;;;;;;;0.00;0.00;;;;;;;-2.72;45.94;99722.88;5091368;28;20062;-73
2022/01/26 06:09:23;;;;;;;0.00;0.00;;;;;;;-2.72;45.46;99709.78;5091491;28;20024;-74
2022/01/26 06:11:48;;;;;;;0.07;0.07;;;;;;;-2.71;45.68;99720.09;5090943;28;20024;-72
2022/01/26 06:14:14;;;;;;;0.00;0.00;;;;;;;-2.79;45.18;99713.09;5089542;28;20068;-72
2022/01/26 06:16:39;;;;;;;1.17;1.17;;;;;;;-2.69;45.03;99735.63;5091203;28;20036;-72
2022/01/26 06:19:04;;;;;;;0.00;0.00;;;;;;;-2.69;45.25;99727.78;5091327;28;20471;-72
2022/01/26 06:21:30;;;;;;;0.00;0.00;;;;;;;-2.77;44.88;99721.59;5091040;28;20100;-73
2022/01/26 06:23:55;;;;;;;0.00;0.00;;;;;;;-2.61;45.04;99725.13;5089803;28;20251;-72
2022/01/26 06:26:21;;;;;;;0.00;0.00;;;;;;;-2.68;44.93;99711.06;5091161;28;20459;-73
2022/01/26 06:28:46;;;;;;;13.57;1.20;;;;;;;-2.67;45.59;99710.06;5090892;28;20089;-72
2022/01/26 06:31:15;;;;;;;0.00;0.00;;;;;;;-2.63;46.65;99725.25;5089654;28;20043;-72
2022/01/26 06:33:42;;;;;;;0.63;0.63;;;;;;;-2.71;46.85;99714.84;5090411;28;20035;-72
2022/01/26 06:36:14;;;;;;;0.00;0.00;;;;;;;-2.63;47.03;99717.41;5090793;28;20028;-73
2022/01/26 06:38:41;;;;;;;0.00;0.00;;;;;;;-2.57;47.39;99735.03;5090848;28;20020;-73
2022/01/26 06:41:07;;;;;;;0.00;0.00;;;;;;;-2.64;47.59;99713.16;5090934;28;20032;-72
2022/01/26 06:43:32;;;;;;;0.00;0.00;;;;;;;-2.53;47.60;99732.09;5090943;28;20123;-72
2022/01/26 06:46:07;;;;;;;0.00;0.00;;;;;;;-2.48;47.36;99724.53;5090495;28;20535;-73
2022/01/26 06:51:07;;;;;;;0.53;0.53;;;;;;;-2.48;47.65;99707.03;5090649;28;20395;-73
2022/01/26 06:53:33;;;;;;;0.10;0.10;;;;;;;-2.41;47.64;99704.50;5090686;28;20052;-73
2022/01/26 06:55:58;;;;;;;0.00;0.00;;;;;;;-2.24;47.96;99728.78;5090655;28;20028;-72
2022/01/26 06:58:24;;;;;;;0.00;0.00;;;;;;;-2.23;47.13;99712.06;5089569;28;20039;-72
2022/01/26 07:00:49;;;;;;;0.00;0.00;;;;;;;-2.16;46.51;99725.28;5090384;28;20027;-73
2022/01/26 07:03:15;;;;;;;0.00;0.00;;;;;;;-2.06;46.31;99725.03;5090493;28;20536;-74
2022/01/26 07:05:41;;;;;;;0.00;0.00;;;;;;;-2.14;45.88;99707.56;5090589;28;20077;-73
2022/01/26 07:08:07;;;;;;;0.00;0.00;;;;;;;-2.01;46.03;99727.97;5090811;28;20067;-72
2022/01/26 07:10:32;;;;;;;0.00;0.00;;;;;;;-1.92;46.01;99741.81;5089571;28;20491;-73
2022/01/26 07:12:58;;;;;;;0.00;0.00;;;;;;;-2.01;45.67;99713.03;5090573;28;20511;-73
2022/01/26 07:23:25;;;;;;;0.00;0.00;;;;;;;-1.81;45.94;99726.47;5090780;28;20034;-73
2022/01/26 07:25:50;;;;;;;0.00;0.00;;;;;;;-1.75;45.94;99724.91;5090160;28;20473;-73
2022/01/26 07:28:16;;;;;;;0.10;0.10;;;;;;;-1.72;46.29;99721.13;5090627;28;20069;-71
2022/01/26 07:30:42;;;;;;;0.00;0.00;;;;;;;-1.68;46.02;99722.41;5090422;28;20475;-73
2022/01/26 07:33:08;;;;;;;0.00;0.00;;;;;;;-1.67;46.02;99718.78;5090631;28;20035;-72
2022/01/26 07:35:33;;;;;;;0.00;0.00;;;;;;;-1.57;46.27;99718.53;5089320;28;20410;-73
2022/01/26 07:38:02;;;;;;;0.10;0.10;;;;;;;-1.54;45.78;99718.97;5090593;28;20032;-72
2022/01/26 07:40:27;;;;;;;6.88;0.90;;;;;;;-1.50;46.03;99717.63;5091383;28;20058;-72
2022/01/26 07:42:53;;;;;;;1.03;1.03;;;;;;;-1.52;46.00;99700.44;5092604;28;20036;-72
2022/01/26 07:45:19;;;;;;;0.00;0.00;;;;;;;-1.37;45.36;99722.22;5094161;28;20020;-72
2022/01/26 07:47:46;;;;;;;0.00;0.00;;;;;;;-1.32;45.68;99719.91;5093870;28;20053;-73
2022/01/26 07:50:14;;;;;;;0.00;0.00;;;;;;;-1.29;45.54;99719.53;5094166;28;20016;-73
2022/01/26 07:52:41;;;;;;;0.10;0.10;;;;;;;-1.21;46.11;99726.50;5092510;28;20070;-72
2022/01/26 07:55:09;;;;;;;0.00;0.00;;;;;;;-1.16;45.81;99725.94;5094080;28;20028;-74
2022/01/26 07:57:35;;;;;;;0.00;0.00;;;;;;;-1.22;45.11;99710.91;5093993;28;20027;-73
2022/01/26 08:00:00;;;;;;;0.00;0.00;;;;;;;-1.16;45.76;99699.69;5093756;28;20501;-73
2022/01/26 08:02:26;;;;;;;0.00;0.00;;;;;;;-0.93;45.12;99720.56;5093872;28;20031;-72
2022/01/26 08:04:51;;;;;;;0.00;0.00;;;;;;;-1.00;44.56;99703.91;5093530;28;20078;-73
2022/01/26 08:07:17;;;;;;;0.43;0.43;;;;;;;-0.92;45.04;99713.53;5093654;28;20402;-72
2022/01/26 08:09:44;;;;;;;1.20;1.20;;;;;;;-0.89;44.71;99708.72;5093486;28;20407;-73
2022/01/26 08:12:10;;;;;;;0.00;0.00;;;;;;;-0.77;44.56;99722.16;5093686;28;20024;-72
2022/01/26 08:14:36;;;;;;;0.10;0.10;;;;;;;-0.66;44.87;99720.88;5092338;28;20411;-72
2022/01/26 08:17:02;;;;;;;0.00;0.00;;;;;;;-0.65;44.50;99712.00;5093114;28;20032;-71
2022/01/26 08:19:28;;;;;;;0.00;0.00;;;;;;;-0.53;44.75;99715.75;5093823;28;20024;-73
2022/01/26 08:21:59;;;;;;;0.03;0.03;;;;;;;-0.55;44.85;99699.38;5093062;28;20032;-72
2022/01/26 08:24:24;;;;;;;0.00;0.00;;;;;;;-0.44;44.94;99692.00;5093468;28;20112;-73
2022/01/26 08:26:50;;;;;;;0.08;0.08;;;;;;;-0.24;44.76;99716.66;5091834;28;20024;-73
2022/01/26 08:29:26;;;;;;;0.00;0.00;;;;;;;-0.21;44.65;99721.53;5093093;28;20464;-73
2022/01/26 08:31:51;;;;;;;0.00;0.00;;;;;;;-0.28;44.60;99690.91;5093044;28;20062;-72
2022/01/26 08:34:17;;;;;;;0.00;0.00;;;;;;;-0.14;45.10;99707.66;5093250;28;20154;-72
2022/01/26 08:36:43;;;;;;;0.00;0.00;;;;;;;-0.13;44.98;99704.00;5093025;28;20084;-73
2022/01/26 08:39:08;;;;;;;0.20;0.20;;;;;;;-0.13;45.08;99694.28;5093213;28;20028;-73
2022/01/26 08:41:34;;;;;;;0.00;0.00;;;;;;;-0.03;45.16;99707.91;5093087;28;20035;-72
2022/01/26 08:43:59;;;;;;;0.52;0.52;;;;;;;0.01;45.02;99707.56;5093059;28;20028;-73
2022/01/26 08:46:25;;;;;;;0.00;0.00;;;;;;;0.04;45.30;99708.00;5093126;28;20028;-73
2022/01/26 08:48:50;;;;;;;0.00;0.00;;;;;;;0.09;44.99;99710.06;5092704;28;20057;-73
2022/01/26 08:51:18;;;;;;;0.17;0.17;;;;;;;0.13;45.19;99717.34;5092416;28;20028;-72
2022/01/26 08:53:44;;;;;;;0.00;0.00;;;;;;;0.13;45.38;99706.03;5091878;28;20040;-72
2022/01/26 08:56:09;;;;;;;0.00;0.00;;;;;;;0.14;45.17;99691.88;5091470;28;20265;-73
2022/01/26 08:58:34;;;;;;;0.00;0.00;;;;;;;0.28;45.27;99704.13;5092779;28;20035;-72
2022/01/26 09:01:00;;;;;;;0.00;0.00;;;;;;;0.29;45.20;99707.56;5092461;28;20490;-72
2022/01/26 09:03:25;;;;;;;0.00;0.00;;;;;;;0.30;45.01;99703.91;5092295;28;20064;-72
2022/01/26 09:05:51;;;;;;;0.00;0.00;;;;;;;0.38;45.08;99705.56;5092368;28;20032;-72
2022/01/26 09:08:17;;;;;;;0.00;0.00;;;;;;;0.45;45.08;99706.44;5092425;28;20040;-71
2022/01/26 09:10:43;;;;;;;0.30;0.30;;;;;;;0.50;45.04;99708.50;5090890;28;20032;-71
2022/01/26 09:13:09;;;;;;;0.00;0.00;;;;;;;0.45;44.88;99699.38;5092136;28;20050;-72
2022/01/26 09:15:35;;;;;;;0.00;0.00;;;;;;;0.39;44.70;99671.19;5092479;28;20024;-72
2022/01/26 09:18:03;;;;;;;0.00;0.00;;;;;;;0.51;44.92;99691.69;5092055;28;20058;-72
2022/01/26 09:20:29;;;;;;;0.00;0.00;;;;;;;0.57;44.85;99696.19;5092298;28;20121;-72
2022/01/26 09:22:55;;;;;;;0.00;0.00;;;;;;;0.66;45.14;99691.56;5092094;28;20415;-71
2022/01/26 09:25:20;;;;;;;0.00;0.00;;;;;;;0.70;45.10;99690.19;5092199;28;20035;-72
2022/01/26 09:27:46;;;;;;;0.10;0.10;;;;;;;0.68;45.12;99694.84;5091891;28;20031;-70
2022/01/26 09:30:11;;;;;;;0.00;0.00;;;;;;;0.78;44.90;99697.91;5092058;28;20024;-72
2022/01/26 09:32:38;;;;;;;0.00;0.00;;;;;;;0.83;45.69;99695.53;5090730;28;20031;-73
2022/01/26 09:35:06;;;;;;;0.00;0.00;;;;;;;0.91;45.50;99690.06;5091904;28;20024;-73
2022/01/26 09:37:32;;;;;;;0.00;0.00;;;;;;;1.01;45.39;99696.78;5090379;28;20035;-73
2022/01/26 09:39:57;;;;;;;0.00;0.00;;;;;;;1.02;45.34;99691.31;5091433;28;20410;-73
2022/01/26 09:42:23;;;;;;;0.00;0.00;;;;;;;1.05;45.70;99685.69;5091519;28;20020;-73
2022/01/26 09:44:48;;;;;;;0.20;0.20;;;;;;;1.08;46.00;99685.25;5091152;28;20479;-72
2022/01/26 09:47:14;;;;;;;0.15;0.15;;;;;;;1.11;46.16;99686.69;5090208;28;20026;-71
2022/01/26 09:49:40;;;;;;;0.00;0.00;;;;;;;1.15;46.03;99679.19;5091529;28;20027;-73
2022/01/26 09:52:14;;;;;;;0.00;0.00;;;;;;;1.10;46.02;99667.44;5091718;28;20372;-72
2022/01/26 09:54:41;;;;;;;0.00;0.00;;;;;;;1.24;46.00;99691.19;5091742;28;20044;-72
2022/01/26 09:57:07;;;;;;;0.00;0.00;;;;;;;1.23;46.07;99676.41;5089971;28;20027;-72
2022/01/26 09:59:33;;;;;;;0.00;0.00;;;;;;;1.32;45.94;99674.38;5091573;28;20059;-72
2022/01/26 10:01:59;;;;;;;0.00;0.00;;;;;;;1.33;46.28;99662.84;5091221;28;20063;-73
2022/01/26 10:04:38;;;;;;;0.00;0.00;;;;;;;1.40;46.71;99663.66;5091163;28;20032;-72
2022/01/26 10:07:28;;;;;;;0.00;0.00;;;;;;;1.45;46.36;99658.59;5091321;28;20025;-72
2022/01/26 10:15:32;;;;;;;0.00;0.00;;;;;;;1.67;46.46;99659.25;5091218;28;20089;-71
2022/01/26 10:18:07;;;;;;;0.00;0.00;;;;;;;1.74;46.34;99652.13;5089515;28;20510;-72
2022/01/26 10:20:53;;;;;;;0.00;0.00;;;;;;;1.78;46.19;99657.81;5091109;28;20054;-72
2022/01/26 10:23:26;;;;;;;0.00;0.00;;;;;;;1.72;46.20;99642.78;5091290;28;20659;-71
2022/01/26 10:26:12;;;;;;;0.00;0.00;;;;;;;1.85;46.33;99653.34;5090926;28;20028;-71
2022/01/26 10:28:44;;;;;;;0.00;0.00;;;;;;;1.82;46.17;99645.84;5091118;28;20028;-71
2022/01/26 10:31:23;;;;;;;1.20;1.13;;;;;;;1.83;46.57;99644.00;5091106;28;20020;-71
2022/01/26 10:34:10;;;;;;;0.00;0.00;;;;;;;1.75;46.25;99630.00;5091104;28;20062;-71
2022/01/26 10:36:42;;;;;;;0.00;0.00;;;;;;;1.84;46.23;99630.63;5091094;28;20020;-71
2022/01/26 10:39:30;;;;;;;0.00;0.00;;;;;;;1.89;45.95;99640.56;5090939;28;20032;-71
2022/01/26 10:42:00;;;;;;;0.00;0.00;;;;;;;1.89;46.25;99630.00;5090845;28;20028;-73
2022/01/26 10:44:33;;;;;;;0.00;0.00;;;;;;;1.93;46.01;99625.97;5089358;28;20547;-73
2022/01/26 10:47:00;;;;;;;0.00;0.00;;;;;;;1.94;46.13;99614.38;5089241;28;20065;-71
2022/01/26 10:54:53;;;;;;;0.10;0.10;;;;;;;1.88;46.07;99618.66;5090661;28;19916;-73
2022/01/26 10:57:19;;;;;;;0.90;0.90;;;;;;;1.80;46.75;99608.31;5091075;28;20040;-71
2022/01/26 10:59:47;;;;;;;0.00;0.00;;;;;;;1.86;46.33;99609.34;5090921;28;20047;-72
2022/01/26 11:02:19;;;;;;;1.88;1.75;;;;;;;1.77;47.14;99603.47;5089511;28;20032;-72
2022/01/26 11:04:45;;;;;;;0.00;0.00;;;;;;;1.80;46.77;99594.31;5104731;28;20031;-73
2022/01/26 11:07:12;;;;;;;0.45;0.45;;;;;;;1.86;46.90;99598.78;5110868;28;20020;-72
2022/01/26 11:09:40;;;;;;;0.17;0.17;;;;;;;1.60;46.92;99552.97;5111103;28;20051;-71
2022/01/26 11:12:11;;;;;;;0.10;0.10;;;;;;;1.75;47.28;99579.91;5111203;28;20042;-71
2022/01/26 11:14:45;;;;;;;0.00;0.00;;;;;;;1.73;47.46;99573.22;5109707;28;20043;-71
2022/01/26 11:17:26;;;;;;;0.20;0.20;;;;;;;1.78;47.82;99572.63;5114915;28;20034;-72
2022/01/26 11:19:51;;;;;;;0.57;0.57;;;;;;;1.87;47.95;99588.03;5114883;28;20031;-72
2022/01/26 11:22:18;;;;;;;0.00;0.00;;;;;;;1.94;47.99;99589.84;5114608;28;20520;-72
2022/01/26 11:24:48;;;;;;;0.00;0.00;;;;;;;1.96;47.82;99580.69;5114703;28;20020;-72
2022/01/26 11:27:16;;;;;;;0.00;0.00;;;;;;;2.00;48.02;99581.09;5114520;28;20471;-72
2022/01/26 11:29:46;;;;;;;0.03;0.03;;;;;;;1.98;47.62;99572.56;5114209;28;20076;-72
2022/01/26 11:32:27;;;;;;;0.00;0.00;;;;;;;2.08;48.27;99570.31;5113156;28;20051;-72
2022/01/26 11:34:54;;;;;;;0.30;0.30;;;;;;;2.11;47.90;99569.09;5113001;28;20023;-72
2022/01/26 11:37:41;;;;;;;0.55;0.55;;;;;;;2.10;47.90;99572.75;5114854;28;20111;-72
2022/01/26 11:45:22;;;;;;;0.00;0.00;;;;;;;2.08;47.79;99557.94;5114612;28;20526;-72
2022/01/26 11:48:24;;;;;;;0.00;0.00;;;;;;;2.23;47.52;99568.25;5114023;28;20035;-72
2022/01/26 11:50:59;;;;;;;0.88;0.88;;;;;;;2.13;47.83;99545.97;5102724;28;20043;-72
2022/01/26 11:53:26;;;;;;;0.00;0.00;;;;;;;2.29;48.17;99569.25;5114428;28;20047;-73
2022/01/26 11:56:00;;;;;;;0.08;0.08;;;;;;;2.27;47.92;99559.91;5113757;28;20036;-71
2022/01/26 11:58:32;;;;;;;0.30;0.30;;;;;;;2.22;48.08;99552.63;5114329;28;20055;-71
2022/01/26 12:01:28;;;;;;;0.00;0.00;;;;;;;2.30;48.47;99562.94;5114001;28;20024;-72
2022/01/26 12:04:11;;;;;;;0.00;0.00;;;;;;;2.21;48.39;99541.25;5113630;28;20030;-72
2022/01/26 12:06:47;;;;;;;1.80;0.95;;;;;;;2.33;48.55;99543.25;5099860;28;20043;-72
2022/01/26 12:09:13;;;;;;;0.20;0.20;;;;;;;2.31;48.85;99548.72;5092425;28;20126;-72
2022/01/26 12:11:38;;;;;;;0.88;0.88;;;;;;;2.38;49.07;99546.06;5093607;28;20111;-73
2022/01/26 12:14:12;;;;;;;0.00;0.00;;;;;;;2.39;48.71;99532.66;5092151;28;20035;-72
2022/01/26 12:16:45;;;;;;;0.00;0.00;;;;;;;2.45;48.70;99538.13;5093587;28;20060;-72
2022/01/26 12:38:24;;;;;;;0.00;0.00;;;;;;;2.69;48.75;99516.25;5093364;28;20020;-71
2022/01/26 12:43:47;;;;;;;0.00;0.00;;;;;;;2.67;48.91;99513.03;5092724;28;20036;-72
2022/01/26 12:46:17;;;;;;;1.00;0.45;;;;;;;2.77;49.27;99541.63;5092932;28;20118;-71
2022/01/26 12:48:51;;;;;;;0.85;0.85;;;;;;;2.85;49.95;99532.63;5092999;28;20483;-71
2022/01/26 12:51:17;;;;;;;3.53;0.85;;;;;;;2.89;49.25;99531.16;5092381;28;20024;-71
2022/01/26 12:53:43;;;;;;;0.00;0.00;;;;;;;2.91;49.42;99523.84;5091956;28;20059;-72
2022/01/26 12:56:12;;;;;;;0.00;0.00;;;;;;;2.99;48.86;99517.47;5091910;28;20070;-72
2022/01/26 12:58:39;;;;;;;0.00;0.00;;;;;;;3.05;48.69;99527.19;5092175;28;20031;-72
2022/01/26 13:01:17;;;;;;;0.00;0.00;;;;;;;3.05;48.75;99527.19;5092414;28;20491;-72
2022/01/26 13:03:43;;;;;;;0.45;0.45;;;;;;;3.00;48.82;99516.47;5092416;28;20073;-72
2022/01/26 13:06:14;;;;;;;0.00;0.00;;;;;;;3.08;48.01;99516.22;5092691;28;20407;-72
2022/01/26 13:08:45;;;;;;;0.03;0.03;;;;;;;3.16;48.78;99542.38;5092647;28;20028;-72
2022/01/26 13:11:11;;;;;;;0.00;0.00;;;;;;;3.11;48.77;99517.59;5092017;28;20578;-71
2022/01/26 13:13:36;;;;;;;0.38;0.38;;;;;;;3.13;48.55;99512.94;5092320;28;20043;-72
2022/01/26 13:16:21;;;;;;;0.00;0.00;;;;;;;3.24;49.16;99514.84;5092087;28;20403;-72
2022/01/26 13:24:11;;;;;;;2.10;1.50;;;;;;;3.21;49.17;99512.66;5092144;28;20096;-72
2022/01/26 13:26:54;;;;;;;10.77;3.30;;;;;;;3.28;49.28;99523.16;5092216;28;20059;-73
2022/01/26 13:29:47;;;;;;;0.00;0.00;;;;;;;3.28;49.44;99526.59;5092323;28;20024;-72
2022/01/26 13:53:03;;;;;;;1.08;1.08;;;;;;;3.37;50.88;99524.53;5111856;28;20039;-71
2022/01/26 13:56:20;;;;;;;0.40;0.40;;;;;;;3.38;51.00;99535.91;5112191;28;20082;-71
2022/01/26 14:00:55;;;;;;;0.00;0.00;;;;;;;3.35;50.64;99519.44;5111957;28;20494;-71
2022/01/26 14:03:24;;;;;;;0.98;0.98;;;;;;;3.40;50.79;99525.94;5111750;28;20019;-71
2022/01/26 14:05:49;;;;;;;0.00;0.00;;;;;;;3.40;51.06;99524.06;5110350;28;20470;-71
2022/01/26 14:08:14;;;;;;;0.00;0.00;;;;;;;3.35;51.34;99529.22;5110326;28;20072;-71
2022/01/26 14:10:44;;;;;;;0.00;0.00;;;;;;;3.32;51.00;99532.28;5111828;28;20540;-71
2022/01/26 14:13:09;;;;;;;0.00;0.00;;;;;;;3.34;51.38;99543.44;5111487;28;20019;-71
2022/01/26 14:15:40;;;;;;;0.00;0.00;;;;;;;3.11;51.45;99505.19;5111804;28;20031;-71
2022/01/26 14:26:32;;;;;;;0.00;0.00;;;;;;;3.36;52.18;99536.91;5091172;28;20073;-72
2022/01/26 14:28:59;;;;;;;1.23;1.17;;;;;;;3.43;51.98;99536.88;5111378;28;20084;-72
2022/01/26 14:31:33;;;;;;;0.00;0.00;;;;;;;3.40;52.10;99534.66;5110177;28;20024;-71
2022/01/26 14:34:45;;;;;;;0.00;0.00;;;;;;;3.40;51.68;99529.38;5110016;28;20019;-71
2022/01/26 14:51:01;;;;;;;1.65;1.55;;;;;;;3.28;51.90;99526.59;5112402;28;20038;-71
2022/01/26 15:31:38;;;;;;;0.00;0.00;;;;;;;3.26;53.53;99551.63;5098267;28;20483;-71